createdAt,value
2019-05-26T00:00:07.547Z,10.18
2019-05-26T00:02:35.999Z,12.78
2019-05-26T00:05:09.522Z,11.63
2019-05-26T00:07:38.724Z,9.93
2019-05-26T00:10:08.119Z,13.08
2019-05-26T00:12:36.632Z,14.47
2019-05-26T00:15:07.225Z,11.57
2019-05-26T00:17:35.669Z,17.82
2019-05-26T00:20:07.051Z,12.78
2019-05-26T00:22:35.636Z,11.45
2019-05-26T00:25:05.618Z,11.55
2019-05-26T00:27:34.069Z,12.75
2019-05-26T00:30:02.512Z,14.90
2019-05-26T00:32:30.960Z,9.43
2019-05-26T00:34:59.398Z,12.78
2019-05-26T00:37:27.844Z,12.53
2019-05-26T00:39:57.832Z,13.25
2019-05-26T00:42:26.295Z,9.03
2019-05-26T00:44:54.737Z,10.65
2019-05-26T00:47:23.188Z,7.33
2019-05-26T00:49:51.642Z,12.43
2019-05-26T00:52:20.227Z,12.53
2019-05-26T00:54:48.831Z,12.00
2019-05-26T00:57:17.280Z,9.50
2019-05-26T00:59:45.707Z,8.83
2019-05-26T01:02:14.226Z,10.50
2019-05-26T01:04:44.231Z,8.50
2019-05-26T01:07:12.678Z,15.18
2019-05-26T01:09:41.139Z,11.40
2019-05-26T01:12:09.595Z,11.83
2019-05-26T01:14:38.035Z,13.32
2019-05-26T01:17:06.573Z,12.07
2019-05-26T01:19:35.016Z,12.68
2019-05-26T01:22:03.524Z,10.68
2019-05-26T01:24:31.974Z,16.05
2019-05-26T01:27:00.988Z,10.60
2019-05-26T01:29:29.424Z,10.70
2019-05-26T01:31:57.939Z,9.68
2019-05-26T01:34:26.434Z,9.05
2019-05-26T01:36:55.122Z,13.93
2019-05-26T01:39:23.960Z,10.68
2019-05-26T01:41:52.391Z,14.18
2019-05-26T01:44:20.840Z,12.10
2019-05-26T01:46:49.274Z,13.83
2019-05-26T01:49:17.734Z,12.47
2019-05-26T01:51:46.187Z,12.63
2019-05-26T01:54:14.644Z,9.95
2019-05-26T01:56:43.088Z,14.15
2019-05-26T01:59:11.549Z,13.58
2019-05-26T02:01:40.088Z,10.93
2019-05-26T02:04:08.546Z,13.68
2019-05-26T02:06:38.199Z,12.20
2019-05-26T02:09:08.159Z,12.07
2019-05-26T02:11:36.616Z,13.95
2019-05-26T02:14:06.518Z,16.00
2019-05-26T02:16:34.973Z,15.03
2019-05-26T02:19:03.427Z,13.48
2019-05-26T02:21:31.939Z,18.37
2019-05-26T02:24:00.393Z,15.88
2019-05-26T02:26:28.849Z,17.82
2019-05-26T02:28:57.282Z,15.88
2019-05-26T02:31:25.808Z,17.25
2019-05-26T02:33:54.272Z,20.08
2019-05-26T02:36:22.709Z,14.70
2019-05-26T02:39:02.038Z,28.27
2019-05-26T02:41:21.339Z,17.90
2019-05-26T02:43:49.859Z,19.10
2019-05-26T02:46:18.322Z,21.50
2019-05-26T02:48:49.325Z,24.55
2019-05-26T02:51:17.777Z,18.95
2019-05-26T02:53:46.247Z,17.90
2019-05-26T02:56:14.890Z,15.70
2019-05-26T02:58:43.338Z,18.17
2019-05-26T03:01:12.056Z,17.23
2019-05-26T03:03:40.559Z,20.88
2019-05-26T03:06:11.496Z,18.40
2019-05-26T03:08:40.584Z,18.70
2019-05-26T03:11:10.243Z,23.18
2019-05-26T03:13:39.547Z,24.57
2019-05-26T03:16:10.462Z,34.92
2019-05-26T03:18:40.953Z,21.60
2019-05-26T03:21:12.526Z,23.05
2019-05-26T03:23:42.382Z,30.17
2019-05-26T03:26:12.180Z,27.10
2019-05-26T03:28:40.629Z,24.82
2019-05-26T03:31:09.075Z,25.88
2019-05-26T03:33:37.537Z,27.90
2019-05-26T03:36:10.220Z,28.83
2019-05-26T03:38:36.286Z,30.43
2019-05-26T03:41:05.144Z,29.18
2019-05-26T03:43:33.598Z,30.72
2019-05-26T03:46:07.983Z,33.15
2019-05-26T03:48:36.439Z,27.67
2019-05-26T03:51:04.877Z,27.07
2019-05-26T03:53:33.339Z,26.23
2019-05-26T03:56:01.933Z,24.23
2019-05-26T03:58:30.387Z,31.87
2019-05-26T04:00:58.838Z,26.60
2019-05-26T04:03:27.291Z,22.15
2019-05-26T04:05:55.741Z,26.97
2019-05-26T04:08:29.428Z,28.17
2019-05-26T04:10:57.875Z,23.87
2019-05-26T04:13:26.323Z,29.63
2019-05-26T04:15:54.777Z,27.58
2019-05-26T04:18:23.302Z,27.07
2019-05-26T04:20:51.777Z,27.52
2019-05-26T04:23:26.322Z,33.30
2019-05-26T04:25:54.765Z,28.87
2019-05-26T04:28:23.224Z,35.88
2019-05-26T04:30:51.659Z,30.70
2019-05-26T04:33:20.110Z,34.85
2019-05-26T04:35:51.110Z,30.62
2019-05-26T04:38:19.569Z,31.85
2019-05-26T04:40:48.090Z,36.25
2019-05-26T04:43:16.670Z,33.78
2019-05-26T04:45:45.168Z,37.05
2019-05-26T04:48:13.622Z,32.75
2019-05-26T04:50:42.070Z,40.12
2019-05-26T04:53:10.519Z,40.17
2019-05-26T04:55:40.572Z,35.28
2019-05-26T04:58:09.036Z,37.00
2019-05-26T05:00:37.481Z,41.58
2019-05-26T05:03:05.953Z,38.13
2019-05-26T05:05:34.388Z,43.30
2019-05-26T05:08:02.861Z,39.38
2019-05-26T05:10:41.884Z,37.88
2019-05-26T05:13:01.558Z,43.83
2019-05-26T05:15:31.379Z,39.40
2019-05-26T05:18:00.005Z,43.30
2019-05-26T05:20:28.465Z,39.40
2019-05-26T05:22:56.912Z,46.02
2019-05-26T05:25:25.373Z,40.28
2019-05-26T05:27:53.808Z,42.50
2019-05-26T05:30:22.498Z,47.27
2019-05-26T05:32:50.943Z,47.10
2019-05-26T05:35:19.723Z,45.08
2019-05-26T05:37:48.184Z,47.40
2019-05-26T05:40:17.072Z,44.20
2019-05-26T05:42:45.563Z,46.00
2019-05-26T05:45:14.761Z,47.60
2019-05-26T05:47:44.044Z,47.73
2019-05-26T05:50:13.111Z,44.80
2019-05-26T05:52:41.642Z,46.88
2019-05-26T05:55:10.642Z,47.33
2019-05-26T05:57:39.118Z,46.75
2019-05-26T06:00:09.305Z,42.75
2019-05-26T06:02:37.820Z,41.33
2019-05-26T06:05:15.392Z,51.50
2019-05-26T06:07:47.672Z,50.17
2019-05-26T06:10:16.771Z,46.42
2019-05-26T06:12:45.219Z,46.88
2019-05-26T06:15:15.939Z,44.18
2019-05-26T06:17:43.974Z,47.08
2019-05-26T06:20:14.356Z,48.95
2019-05-26T06:22:42.790Z,46.37
2019-05-26T06:25:11.394Z,47.38
2019-05-26T06:27:39.848Z,54.63
2019-05-26T06:30:09.635Z,41.70
2019-05-26T06:32:38.070Z,45.88
2019-05-26T06:35:07.169Z,43.80
2019-05-26T06:37:35.602Z,44.48
2019-05-26T06:40:06.196Z,46.85
2019-05-26T06:42:34.655Z,47.75
2019-05-26T06:45:04.257Z,44.60
2019-05-26T06:47:32.703Z,42.65
2019-05-26T06:50:01.224Z,42.83
2019-05-26T06:52:29.681Z,41.08
2019-05-26T06:54:58.135Z,44.35
2019-05-26T06:57:26.600Z,43.30
2019-05-26T06:59:55.042Z,42.10
2019-05-26T07:02:23.625Z,46.63
2019-05-26T07:04:52.248Z,40.92
2019-05-26T07:07:20.695Z,40.88
2019-05-26T07:09:49.136Z,44.65
2019-05-26T07:12:17.599Z,41.45
2019-05-26T07:14:46.083Z,38.88
2019-05-26T07:17:20.346Z,40.55
2019-05-26T07:19:46.969Z,41.23
2019-05-26T07:22:15.412Z,36.13
2019-05-26T07:24:45.680Z,36.63
2019-05-26T07:27:14.104Z,39.30
2019-05-26T07:29:42.737Z,37.58
2019-05-26T07:32:11.171Z,40.50
2019-05-26T07:34:39.623Z,34.95
2019-05-26T07:37:08.070Z,37.20
2019-05-26T07:39:36.532Z,33.00
2019-05-26T07:42:10.513Z,30.75
2019-05-26T07:44:36.895Z,40.33
2019-05-26T07:47:05.428Z,31.23
2019-05-26T07:49:33.878Z,33.85
2019-05-26T07:52:02.339Z,30.75
2019-05-26T07:54:30.789Z,32.95
2019-05-26T07:56:59.244Z,29.15
2019-05-26T07:59:27.760Z,37.00
2019-05-26T08:01:56.214Z,32.13
2019-05-26T08:04:24.954Z,31.52
2019-05-26T08:06:56.262Z,28.62
2019-05-26T08:09:24.718Z,31.65
2019-05-26T08:11:53.160Z,31.17
2019-05-26T08:14:21.616Z,32.30
2019-05-26T08:16:50.054Z,25.65
2019-05-26T08:19:18.514Z,27.52
2019-05-26T08:21:46.966Z,28.10
2019-05-26T08:24:15.422Z,32.48
2019-05-26T08:26:43.879Z,26.97
2019-05-26T08:29:12.339Z,29.92
2019-05-26T08:31:41.044Z,30.35
2019-05-26T08:34:09.483Z,28.85
2019-05-26T08:36:38.296Z,26.73
2019-05-26T08:39:09.725Z,26.62
2019-05-26T08:41:38.173Z,24.37
2019-05-26T08:44:06.681Z,19.62
2019-05-26T08:46:35.133Z,23.38
2019-05-26T08:49:03.580Z,22.70
2019-05-26T08:51:32.021Z,23.45
2019-05-26T08:54:00.471Z,26.23
2019-05-26T08:56:28.926Z,23.87
2019-05-26T08:58:57.381Z,23.12
2019-05-26T09:01:25.823Z,29.42
2019-05-26T09:03:54.297Z,25.82
2019-05-26T09:06:22.742Z,24.18
2019-05-26T09:08:51.188Z,33.20
2019-05-26T09:11:19.631Z,26.33
2019-05-26T09:13:48.075Z,23.62
2019-05-26T09:16:16.572Z,17.27
2019-05-26T09:18:45.039Z,15.68
2019-05-26T09:21:13.490Z,15.18
2019-05-26T09:23:41.936Z,10.15
2019-05-26T09:26:10.382Z,15.53
2019-05-26T09:28:39.939Z,14.63
2019-05-26T09:31:27.720Z,12.05
2019-05-26T09:33:56.168Z,12.98
2019-05-26T09:36:24.628Z,13.43
2019-05-26T09:38:53.086Z,17.87
2019-05-26T09:41:21.535Z,21.40
2019-05-26T09:43:52.376Z,16.07
2019-05-26T09:46:20.820Z,16.00
2019-05-26T09:48:51.949Z,15.70
2019-05-26T09:51:20.405Z,14.60
2019-05-26T09:54:00.864Z,12.18
2019-05-26T09:56:19.351Z,21.75
2019-05-26T09:58:47.792Z,14.58
2019-05-26T10:01:16.256Z,17.40
2019-05-26T10:03:44.696Z,13.03
2019-05-26T10:06:13.161Z,21.97
2019-05-26T10:08:43.773Z,20.72
2019-05-26T10:11:12.299Z,13.90
2019-05-26T10:13:40.738Z,13.70
2019-05-26T10:16:09.197Z,12.63
2019-05-26T10:18:37.674Z,22.17
2019-05-26T10:21:06.114Z,13.45
2019-05-26T10:23:34.572Z,17.12
2019-05-26T10:26:03.007Z,16.67
2019-05-26T10:28:31.447Z,16.12
2019-05-26T10:30:59.896Z,21.68
2019-05-26T10:33:28.360Z,15.23
2019-05-26T10:35:56.806Z,14.60
2019-05-26T10:38:25.253Z,19.48
2019-05-26T10:40:53.707Z,14.00
2019-05-26T10:43:22.157Z,16.97
2019-05-26T10:45:50.760Z,12.75
2019-05-26T10:48:19.259Z,19.48
2019-05-26T10:50:48.796Z,17.27
2019-05-26T10:53:17.278Z,15.58
2019-05-26T10:55:45.760Z,13.58
2019-05-26T10:58:14.224Z,13.03
2019-05-26T11:00:44.383Z,14.30
2019-05-26T11:03:12.913Z,14.98
2019-05-26T11:05:41.428Z,19.90
2019-05-26T11:08:09.879Z,15.48
2019-05-26T11:10:38.331Z,13.20
2019-05-26T11:13:06.855Z,14.90
2019-05-26T11:15:35.353Z,15.28
2019-05-26T11:18:05.409Z,13.62
2019-05-26T11:20:33.858Z,13.30
2019-05-26T11:23:02.320Z,11.65
2019-05-26T11:25:30.778Z,9.60
2019-05-26T11:27:59.211Z,11.03
2019-05-26T11:30:28.129Z,12.55
2019-05-26T11:32:59.547Z,11.08
2019-05-26T11:35:26.818Z,12.68
2019-05-26T11:37:55.251Z,10.35
2019-05-26T11:40:23.714Z,13.55
2019-05-26T11:42:52.163Z,13.38
2019-05-26T11:45:23.168Z,19.15
2019-05-26T11:47:51.616Z,11.50
2019-05-26T11:50:21.011Z,11.68
2019-05-26T11:52:49.460Z,14.87
2019-05-26T11:55:17.974Z,12.15
2019-05-26T11:57:46.428Z,11.88
2019-05-26T12:00:17.106Z,12.15
2019-05-26T12:02:46.177Z,12.43
2019-05-26T12:05:17.455Z,11.35
2019-05-26T12:07:45.229Z,8.20
2019-05-26T12:10:14.604Z,13.10
2019-05-26T12:12:43.226Z,8.50
2019-05-26T12:15:12.793Z,10.63
2019-05-26T12:17:42.296Z,12.35
2019-05-26T12:20:11.027Z,10.05
2019-05-26T12:22:39.469Z,9.33
2019-05-26T12:25:09.663Z,10.88
2019-05-26T12:27:38.169Z,10.35
2019-05-26T12:30:08.626Z,9.43
2019-05-26T12:32:37.077Z,6.65
2019-05-26T12:35:09.747Z,8.85
2019-05-26T12:37:38.205Z,9.20
2019-05-26T12:40:07.567Z,6.95
2019-05-26T12:42:36.025Z,9.80
2019-05-26T12:45:07.470Z,17.67
2019-05-26T12:47:36.081Z,8.60
2019-05-26T12:50:07.841Z,10.48
2019-05-26T12:52:36.292Z,12.93
2019-05-26T12:55:09.441Z,18.62
2019-05-26T12:57:36.920Z,6.92
2019-05-26T13:00:09.235Z,11.30
2019-05-26T13:02:37.808Z,6.20
2019-05-26T13:05:07.683Z,9.78
2019-05-26T13:07:36.256Z,6.87
2019-05-26T13:10:07.221Z,3.72
2019-05-26T13:12:35.735Z,6.12
2019-05-26T13:15:07.274Z,2.75
2019-05-26T13:17:35.731Z,11.73
2019-05-26T13:20:06.067Z,5.35
2019-05-26T13:22:34.779Z,10.15
2019-05-26T13:25:05.193Z,6.47
2019-05-26T13:27:33.643Z,7.12
2019-05-26T13:30:02.072Z,4.67
2019-05-26T13:32:30.522Z,7.30
2019-05-26T13:34:58.967Z,13.83
2019-05-26T13:37:27.421Z,11.43
2019-05-26T13:39:55.868Z,10.63
2019-05-26T13:42:24.316Z,7.75
2019-05-26T13:44:52.777Z,15.18
2019-05-26T13:47:26.233Z,8.95
2019-05-26T13:49:53.033Z,7.87
2019-05-26T13:52:21.497Z,7.37
2019-05-26T13:54:49.943Z,4.78
2019-05-26T13:57:20.787Z,8.23
2019-05-26T13:59:49.253Z,9.30
2019-05-26T14:02:17.701Z,5.78
2019-05-26T14:04:46.132Z,5.35
2019-05-26T14:07:14.592Z,13.45
2019-05-26T14:09:43.023Z,6.20
2019-05-26T14:12:11.476Z,9.78
2019-05-26T14:14:41.172Z,11.50
2019-05-26T14:17:09.998Z,5.30
2019-05-26T14:19:39.676Z,6.28
2019-05-26T14:22:08.122Z,13.45
2019-05-26T14:24:36.563Z,8.00
2019-05-26T14:27:04.996Z,7.60
2019-05-26T14:29:33.439Z,9.98
2019-05-26T14:32:01.876Z,10.58
2019-05-26T14:34:30.326Z,7.15
2019-05-26T14:36:58.838Z,4.60
2019-05-26T14:39:27.312Z,6.72
2019-05-26T14:41:55.812Z,8.15
2019-05-26T14:44:24.252Z,7.08
2019-05-26T14:46:52.700Z,9.63
2019-05-26T14:49:21.139Z,16.82
2019-05-26T14:51:49.593Z,29.87
2019-05-26T14:54:18.029Z,10.10
2019-05-26T14:56:46.486Z,7.08
2019-05-26T14:59:14.915Z,5.30
2019-05-26T15:01:43.372Z,5.03
2019-05-26T15:04:11.822Z,3.45
2019-05-26T15:06:40.255Z,3.37
2019-05-26T15:09:22.418Z,5.67
2019-05-26T15:11:39.327Z,4.17
2019-05-26T15:14:07.780Z,3.05
2019-05-26T15:16:36.219Z,8.05
2019-05-26T15:19:04.740Z,4.97
2019-05-26T15:21:33.193Z,13.22
2019-05-26T15:24:01.661Z,8.40
2019-05-26T15:26:30.108Z,7.20
2019-05-26T15:28:58.541Z,6.25
2019-05-26T15:31:26.997Z,8.58
2019-05-26T15:33:55.430Z,4.95
2019-05-26T15:36:23.876Z,7.70
2019-05-26T15:38:52.311Z,4.92
2019-05-26T15:41:20.763Z,6.80
2019-05-26T15:43:49.221Z,7.25
2019-05-26T15:46:25.082Z,16.50
2019-05-26T15:48:49.633Z,4.40
2019-05-26T15:51:18.093Z,2.75
2019-05-26T15:53:46.603Z,2.02
2019-05-26T15:56:15.059Z,2.95
2019-05-26T15:58:43.508Z,7.22
2019-05-26T16:01:11.939Z,3.95
2019-05-26T16:03:40.382Z,4.22
2019-05-26T16:06:08.903Z,8.38
2019-05-26T16:08:37.362Z,10.15
2019-05-26T16:11:05.804Z,6.42
2019-05-26T16:13:34.257Z,10.00
2019-05-26T16:16:02.704Z,5.60
2019-05-26T16:18:31.148Z,9.75
2019-05-26T16:21:03.439Z,8.50
2019-05-26T16:23:29.766Z,7.53
2019-05-26T16:25:58.214Z,7.70
2019-05-26T16:28:26.652Z,11.22
2019-05-26T16:30:55.187Z,7.95
2019-05-26T16:33:23.607Z,9.98
2019-05-26T16:35:55.372Z,10.98
2019-05-26T16:38:22.245Z,8.35
2019-05-26T16:40:50.684Z,11.25
2019-05-26T16:43:22.079Z,10.08
2019-05-26T16:45:55.992Z,12.78
2019-05-26T16:48:20.707Z,10.75
2019-05-26T16:50:49.146Z,9.20
2019-05-26T16:53:17.600Z,14.38
2019-05-26T16:55:46.065Z,13.58
2019-05-26T16:58:14.521Z,6.95
2019-05-26T17:00:43.192Z,7.25
2019-05-26T17:03:11.660Z,11.83
2019-05-26T17:05:40.100Z,9.48
2019-05-26T17:08:08.546Z,5.03
2019-05-26T17:10:36.996Z,10.28
2019-05-26T17:13:05.438Z,8.15
2019-05-26T17:15:36.393Z,14.20
2019-05-26T17:18:05.380Z,12.65
2019-05-26T17:20:33.906Z,6.17
2019-05-26T17:23:02.359Z,12.95
2019-05-26T17:25:30.808Z,6.37
2019-05-26T17:27:59.263Z,12.18
2019-05-26T17:30:27.703Z,6.37
2019-05-26T17:32:56.163Z,10.50
2019-05-26T17:35:24.592Z,4.70
2019-05-26T17:37:55.707Z,8.90
2019-05-26T17:40:24.199Z,6.15
2019-05-26T17:42:56.118Z,13.43
2019-05-26T17:45:24.561Z,22.27
2019-05-26T17:47:52.997Z,20.27
2019-05-26T17:50:21.513Z,15.88
2019-05-26T17:52:49.944Z,9.93
2019-05-26T17:55:18.469Z,17.05
2019-05-26T17:57:46.902Z,10.50
2019-05-26T18:00:15.501Z,14.73
2019-05-26T18:02:44.021Z,20.55
2019-05-26T18:05:13.296Z,21.62
2019-05-26T18:07:43.637Z,14.25
2019-05-26T18:10:14.534Z,17.62
2019-05-26T18:12:42.980Z,16.17
2019-05-26T18:15:11.644Z,7.30
2019-05-26T18:17:47.311Z,9.75
2019-05-26T18:20:13.190Z,14.05
2019-05-26T18:22:41.675Z,15.53
2019-05-26T18:25:10.415Z,12.75
2019-05-26T18:27:39.340Z,13.08
2019-05-26T18:30:08.820Z,12.03
2019-05-26T18:32:37.270Z,6.58
2019-05-26T18:35:07.429Z,16.17
2019-05-26T18:37:35.884Z,10.53
2019-05-26T18:40:07.720Z,19.20
2019-05-26T18:42:36.151Z,16.00
2019-05-26T18:45:07.143Z,12.28
2019-05-26T18:47:35.586Z,7.58
2019-05-26T18:50:05.767Z,11.75
2019-05-26T18:52:34.225Z,11.18
2019-05-26T18:55:04.499Z,20.90
2019-05-26T18:57:32.976Z,18.02
2019-05-26T19:00:01.495Z,13.03
2019-05-26T19:02:32.895Z,16.37
2019-05-26T19:05:01.393Z,19.32
2019-05-26T19:07:29.859Z,17.23
2019-05-26T19:09:58.303Z,24.12
2019-05-26T19:12:26.792Z,17.32
2019-05-26T19:14:55.243Z,16.02
2019-05-26T19:17:23.714Z,17.50
2019-05-26T19:19:52.148Z,15.15
2019-05-26T19:22:20.651Z,10.95
2019-05-26T19:24:49.103Z,18.25
2019-05-26T19:27:17.565Z,18.45
2019-05-26T19:29:46.011Z,18.12
2019-05-26T19:32:14.456Z,21.85
2019-05-26T19:34:42.900Z,16.52
2019-05-26T19:37:12.933Z,15.63
2019-05-26T19:39:41.367Z,14.13
2019-05-26T19:42:09.822Z,13.70
2019-05-26T19:44:38.266Z,22.80
2019-05-26T19:47:06.729Z,20.02
2019-05-26T19:49:35.198Z,15.15
2019-05-26T19:52:03.638Z,16.60
2019-05-26T19:54:32.100Z,19.40
2019-05-26T19:57:00.631Z,14.18
2019-05-26T19:59:29.100Z,15.38
2019-05-26T20:01:57.540Z,12.58
2019-05-26T20:04:25.987Z,30.32
2019-05-26T20:06:54.428Z,21.45
2019-05-26T20:09:22.894Z,14.40
2019-05-26T20:11:51.672Z,22.95
2019-05-26T20:14:20.646Z,19.10
2019-05-26T20:16:49.098Z,20.10
2019-05-26T20:19:17.533Z,11.38
2019-05-26T20:21:45.988Z,23.67
2019-05-26T20:24:14.435Z,17.12
2019-05-26T20:26:42.888Z,17.27
2019-05-26T20:29:11.335Z,22.07
2019-05-26T20:31:39.767Z,11.28
2019-05-26T20:34:08.211Z,16.77
2019-05-26T20:36:36.659Z,15.90
2019-05-26T20:39:07.816Z,16.73
2019-05-26T20:41:37.904Z,19.15
2019-05-26T20:44:06.367Z,12.05
2019-05-26T20:46:34.808Z,11.22
2019-05-26T20:49:03.345Z,13.38
2019-05-26T20:51:31.809Z,12.75
2019-05-26T20:54:00.242Z,13.45
2019-05-26T20:56:28.698Z,12.15
2019-05-26T20:58:57.144Z,9.93
2019-05-26T21:01:25.592Z,14.38
2019-05-26T21:03:54.033Z,14.35
2019-05-26T21:06:22.482Z,9.60
2019-05-26T21:08:50.996Z,8.25
2019-05-26T21:11:19.447Z,12.53
2019-05-26T21:13:47.890Z,11.35
2019-05-26T21:16:16.327Z,11.48
2019-05-26T21:18:44.789Z,6.87
2019-05-26T21:21:13.244Z,12.85
2019-05-26T21:23:41.691Z,7.87
2019-05-26T21:26:10.217Z,14.35
2019-05-26T21:28:38.673Z,8.13
2019-05-26T21:31:07.133Z,11.53
2019-05-26T21:33:35.554Z,9.58
2019-05-26T21:36:04.176Z,9.93
2019-05-26T21:38:32.638Z,10.30
2019-05-26T21:41:01.167Z,7.10
2019-05-26T21:43:32.588Z,7.92
2019-05-26T21:46:03.486Z,13.65
2019-05-26T21:48:34.716Z,6.95
2019-05-26T21:51:02.246Z,7.75
2019-05-26T21:53:30.848Z,9.63
2019-05-26T21:55:59.283Z,7.35
2019-05-26T21:58:27.732Z,6.35
2019-05-26T22:00:56.403Z,6.90
2019-05-26T22:03:24.872Z,8.30
2019-05-26T22:05:53.866Z,8.25
2019-05-26T22:08:22.313Z,8.93
2019-05-26T22:10:50.765Z,9.78
2019-05-26T22:13:19.584Z,8.28
2019-05-26T22:15:48.035Z,9.78
2019-05-26T22:18:16.477Z,9.15
2019-05-26T22:20:44.924Z,10.72
2019-05-26T22:23:13.363Z,7.47
2019-05-26T22:25:41.807Z,9.80
2019-05-26T22:28:10.247Z,8.68
2019-05-26T22:30:38.725Z,10.23
2019-05-26T22:33:07.224Z,15.50
2019-05-26T22:35:35.656Z,15.55
2019-05-26T22:38:04.416Z,13.35
2019-05-26T22:40:32.924Z,13.60
2019-05-26T22:43:01.384Z,11.18
2019-05-26T22:45:29.834Z,14.95
2019-05-26T22:47:58.275Z,14.95
2019-05-26T22:50:26.723Z,15.60
2019-05-26T22:52:55.185Z,17.23
2019-05-26T22:55:23.614Z,13.13
2019-05-26T22:57:52.063Z,15.90
2019-05-26T23:00:20.648Z,17.23
2019-05-26T23:02:49.127Z,13.62
2019-05-26T23:05:17.638Z,17.60
2019-05-26T23:07:46.091Z,19.25
2019-05-26T23:10:14.767Z,17.73
2019-05-26T23:12:43.231Z,16.45
2019-05-26T23:15:13.708Z,16.00
2019-05-26T23:17:42.163Z,16.35
2019-05-26T23:20:11.060Z,18.35
2019-05-26T23:22:39.501Z,21.15
2019-05-26T23:25:08.393Z,16.75
2019-05-26T23:27:36.832Z,21.10
2019-05-26T23:30:08.917Z,17.98
2019-05-26T23:32:37.351Z,19.90
2019-05-26T23:35:06.856Z,16.20
2019-05-26T23:37:35.284Z,19.32
2019-05-26T23:40:07.702Z,17.52
2019-05-26T23:42:36.155Z,18.07
2019-05-26T23:45:06.716Z,21.60
2019-05-26T23:47:35.172Z,16.42
2019-05-26T23:50:05.042Z,21.50
2019-05-26T23:52:33.526Z,17.82
2019-05-26T23:55:02.091Z,20.52
2019-05-26T23:57:30.613Z,17.73
2019-05-26T23:59:59.065Z,25.72
